sensor_id;sensor_type;location;lat;lon;timestamp;P1;durP1;ratioP1;P2;durP2;ratioP2
35578;SDS011;21687;48.900;9.188;2022-08-24T00:01:42;3.47;;;3.17;;
35578;SDS011;21687;48.900;9.188;2022-08-24T00:04:09;5.70;;;3.50;;
35578;SDS011;21687;48.900;9.188;2022-08-24T00:06:35;5.17;;;3.40;;
35578;SDS011;21687;48.900;9.188;2022-08-24T00:09:02;3.90;;;3.60;;
35578;SDS011;21687;48.900;9.188;2022-08-24T00:11:28;3.83;;;3.47;;
35578;SDS011;21687;48.900;9.188;2022-08-24T00:13:55;7.03;;;3.90;;
35578;SDS011;21687;48.900;9.188;2022-08-24T00:16:22;3.30;;;3.00;;
35578;SDS011;21687;48.900;9.188;2022-08-24T00:18:49;3.50;;;3.20;;
35578;SDS011;21687;48.900;9.188;2022-08-24T00:21:15;5.83;;;3.80;;
35578;SDS011;21687;48.900;9.188;2022-08-24T00:23:43;4.10;;;3.70;;
35578;SDS011;21687;48.900;9.188;2022-08-24T00:26:11;6.07;;;3.77;;
35578;SDS011;21687;48.900;9.188;2022-08-24T00:28:38;4.00;;;3.13;;
35578;SDS011;21687;48.900;9.188;2022-08-24T00:31:04;4.00;;;3.40;;
35578;SDS011;21687;48.900;9.188;2022-08-24T00:33:31;5.50;;;3.30;;
35578;SDS011;21687;48.900;9.188;2022-08-24T00:35:58;3.60;;;3.30;;
35578;SDS011;21687;48.900;9.188;2022-08-24T00:38:24;4.07;;;3.60;;
35578;SDS011;21687;48.900;9.188;2022-08-24T00:40:50;4.03;;;3.57;;
35578;SDS011;21687;48.900;9.188;2022-08-24T00:43:19;4.27;;;3.87;;
35578;SDS011;21687;48.900;9.188;2022-08-24T00:45:48;4.03;;;3.43;;
35578;SDS011;21687;48.900;9.188;2022-08-24T00:48:36;4.10;;;3.67;;
35578;SDS011;21687;48.900;9.188;2022-08-24T00:51:07;4.53;;;3.57;;
35578;SDS011;21687;48.900;9.188;2022-08-24T00:53:45;6.27;;;4.10;;
35578;SDS011;21687;48.900;9.188;2022-08-24T00:56:22;4.37;;;3.90;;
35578;SDS011;21687;48.900;9.188;2022-08-24T00:58:55;4.40;;;4.00;;
35578;SDS011;21687;48.900;9.188;2022-08-24T01:01:25;5.60;;;4.13;;
35578;SDS011;21687;48.900;9.188;2022-08-24T01:03:53;4.40;;;4.00;;
35578;SDS011;21687;48.900;9.188;2022-08-24T01:06:21;4.10;;;3.70;;
35578;SDS011;21687;48.900;9.188;2022-08-24T01:08:47;4.40;;;3.80;;
35578;SDS011;21687;48.900;9.188;2022-08-24T01:11:16;6.10;;;4.10;;
35578;SDS011;21687;48.900;9.188;2022-08-24T01:13:46;4.60;;;4.20;;
35578;SDS011;21687;48.900;9.188;2022-08-24T01:16:14;5.07;;;4.50;;
35578;SDS011;21687;48.900;9.188;2022-08-24T01:19:03;4.67;;;4.30;;
35578;SDS011;21687;48.900;9.188;2022-08-24T01:21:42;5.33;;;4.50;;
35578;SDS011;21687;48.900;9.188;2022-08-24T01:24:19;6.33;;;4.70;;
35578;SDS011;21687;48.900;9.188;2022-08-24T01:26:49;7.40;;;4.60;;
35578;SDS011;21687;48.900;9.188;2022-08-24T01:29:16;5.03;;;4.33;;
35578;SDS011;21687;48.900;9.188;2022-08-24T01:31:45;5.30;;;4.50;;
35578;SDS011;21687;48.900;9.188;2022-08-24T01:34:11;4.87;;;4.37;;
35578;SDS011;21687;48.900;9.188;2022-08-24T01:36:39;6.20;;;4.97;;
35578;SDS011;21687;48.900;9.188;2022-08-24T01:39:11;5.67;;;4.67;;
35578;SDS011;21687;48.900;9.188;2022-08-24T01:41:46;4.93;;;4.40;;
35578;SDS011;21687;48.900;9.188;2022-08-24T01:44:13;5.00;;;4.50;;
35578;SDS011;21687;48.900;9.188;2022-08-24T01:46:43;5.63;;;4.93;;
35578;SDS011;21687;48.900;9.188;2022-08-24T01:49:11;5.20;;;4.70;;
35578;SDS011;21687;48.900;9.188;2022-08-24T01:51:37;5.57;;;4.60;;
35578;SDS011;21687;48.900;9.188;2022-08-24T01:54:04;4.67;;;4.27;;
35578;SDS011;21687;48.900;9.188;2022-08-24T01:56:32;5.73;;;4.27;;
35578;SDS011;21687;48.900;9.188;2022-08-24T01:58:58;4.50;;;4.10;;
35578;SDS011;21687;48.900;9.188;2022-08-24T02:01:25;4.77;;;4.00;;
35578;SDS011;21687;48.900;9.188;2022-08-24T02:03:53;5.00;;;4.40;;
35578;SDS011;21687;48.900;9.188;2022-08-24T02:06:20;4.90;;;4.40;;
35578;SDS011;21687;48.900;9.188;2022-08-24T02:08:47;5.20;;;4.27;;
35578;SDS011;21687;48.900;9.188;2022-08-24T02:11:13;5.17;;;4.67;;
35578;SDS011;21687;48.900;9.188;2022-08-24T02:13:40;6.37;;;4.77;;
35578;SDS011;21687;48.900;9.188;2022-08-24T02:16:06;5.30;;;4.80;;
35578;SDS011;21687;48.900;9.188;2022-08-24T02:18:33;5.23;;;4.73;;
35578;SDS011;21687;48.900;9.188;2022-08-24T02:21:01;5.40;;;5.00;;
35578;SDS011;21687;48.900;9.188;2022-08-24T02:23:28;5.07;;;4.50;;
35578;SDS011;21687;48.900;9.188;2022-08-24T02:25:54;6.77;;;5.07;;
35578;SDS011;21687;48.900;9.188;2022-08-24T02:28:21;5.53;;;5.03;;
35578;SDS011;21687;48.900;9.188;2022-08-24T02:30:48;6.57;;;4.90;;
35578;SDS011;21687;48.900;9.188;2022-08-24T02:33:14;5.40;;;4.90;;
35578;SDS011;21687;48.900;9.188;2022-08-24T02:35:41;6.77;;;5.73;;
35578;SDS011;21687;48.900;9.188;2022-08-24T02:38:07;5.13;;;4.70;;
35578;SDS011;21687;48.900;9.188;2022-08-24T02:40:34;4.97;;;4.47;;
35578;SDS011;21687;48.900;9.188;2022-08-24T02:43:01;5.10;;;4.63;;
35578;SDS011;21687;48.900;9.188;2022-08-24T02:45:28;4.83;;;4.27;;
35578;SDS011;21687;48.900;9.188;2022-08-24T02:47:54;4.43;;;4.13;;
35578;SDS011;21687;48.900;9.188;2022-08-24T02:50:21;5.33;;;3.97;;
35578;SDS011;21687;48.900;9.188;2022-08-24T02:52:47;5.30;;;4.80;;
35578;SDS011;21687;48.900;9.188;2022-08-24T02:55:15;4.57;;;4.17;;
35578;SDS011;21687;48.900;9.188;2022-08-24T02:57:42;5.80;;;4.83;;
35578;SDS011;21687;48.900;9.188;2022-08-24T03:00:10;4.80;;;4.40;;
35578;SDS011;21687;48.900;9.188;2022-08-24T03:02:38;5.03;;;4.53;;
35578;SDS011;21687;48.900;9.188;2022-08-24T03:05:06;6.30;;;4.83;;
35578;SDS011;21687;48.900;9.188;2022-08-24T03:07:34;4.60;;;4.20;;
35578;SDS011;21687;48.900;9.188;2022-08-24T03:10:01;4.77;;;4.37;;
35578;SDS011;21687;48.900;9.188;2022-08-24T03:12:29;4.70;;;4.20;;
35578;SDS011;21687;48.900;9.188;2022-08-24T03:14:56;4.90;;;4.37;;
35578;SDS011;21687;48.900;9.188;2022-08-24T03:17:22;4.70;;;4.30;;
35578;SDS011;21687;48.900;9.188;2022-08-24T03:19:48;5.70;;;5.10;;
35578;SDS011;21687;48.900;9.188;2022-08-24T03:22:15;4.50;;;4.10;;
35578;SDS011;21687;48.900;9.188;2022-08-24T03:24:41;4.60;;;4.20;;
35578;SDS011;21687;48.900;9.188;2022-08-24T03:27:07;4.63;;;4.30;;
35578;SDS011;21687;48.900;9.188;2022-08-24T03:29:34;4.60;;;4.00;;
35578;SDS011;21687;48.900;9.188;2022-08-24T03:32:00;5.07;;;4.40;;
35578;SDS011;21687;48.900;9.188;2022-08-24T03:34:27;5.10;;;4.60;;
35578;SDS011;21687;48.900;9.188;2022-08-24T03:36:53;4.77;;;4.20;;
35578;SDS011;21687;48.900;9.188;2022-08-24T03:39:19;4.60;;;4.20;;
35578;SDS011;21687;48.900;9.188;2022-08-24T03:41:46;5.10;;;4.60;;
35578;SDS011;21687;48.900;9.188;2022-08-24T03:44:12;5.87;;;4.47;;
35578;SDS011;21687;48.900;9.188;2022-08-24T03:46:38;5.87;;;4.07;;
35578;SDS011;21687;48.900;9.188;2022-08-24T03:49:06;5.17;;;4.70;;
35578;SDS011;21687;48.900;9.188;2022-08-24T03:51:34;5.30;;;4.80;;
35578;SDS011;21687;48.900;9.188;2022-08-24T03:54:01;6.53;;;5.70;;
35578;SDS011;21687;48.900;9.188;2022-08-24T03:56:30;5.00;;;4.40;;
35578;SDS011;21687;48.900;9.188;2022-08-24T03:58:57;5.47;;;4.97;;
35578;SDS011;21687;48.900;9.188;2022-08-24T04:01:24;6.27;;;4.90;;
35578;SDS011;21687;48.900;9.188;2022-08-24T04:03:51;5.23;;;4.63;;
35578;SDS011;21687;48.900;9.188;2022-08-24T04:06:18;5.80;;;5.27;;
35578;SDS011;21687;48.900;9.188;2022-08-24T04:08:45;4.90;;;4.50;;
35578;SDS011;21687;48.900;9.188;2022-08-24T04:11:13;5.10;;;4.70;;
35578;SDS011;21687;48.900;9.188;2022-08-24T04:13:42;6.37;;;5.57;;
35578;SDS011;21687;48.900;9.188;2022-08-24T04:16:11;6.77;;;5.40;;
35578;SDS011;21687;48.900;9.188;2022-08-24T04:18:39;5.97;;;5.47;;
35578;SDS011;21687;48.900;9.188;2022-08-24T04:21:06;6.00;;;5.23;;
35578;SDS011;21687;48.900;9.188;2022-08-24T04:23:40;5.10;;;4.60;;
35578;SDS011;21687;48.900;9.188;2022-08-24T04:26:07;5.60;;;4.80;;
35578;SDS011;21687;48.900;9.188;2022-08-24T04:28:33;5.53;;;5.03;;
35578;SDS011;21687;48.900;9.188;2022-08-24T04:31:00;6.30;;;5.70;;
35578;SDS011;21687;48.900;9.188;2022-08-24T04:33:30;5.70;;;5.10;;
35578;SDS011;21687;48.900;9.188;2022-08-24T04:35:56;6.00;;;5.50;;
35578;SDS011;21687;48.900;9.188;2022-08-24T04:38:23;8.67;;;5.80;;
35578;SDS011;21687;48.900;9.188;2022-08-24T04:40:51;5.80;;;5.30;;
35578;SDS011;21687;48.900;9.188;2022-08-24T04:43:18;5.87;;;5.27;;
35578;SDS011;21687;48.900;9.188;2022-08-24T04:45:45;8.33;;;5.63;;
35578;SDS011;21687;48.900;9.188;2022-08-24T04:48:12;6.17;;;5.57;;
35578;SDS011;21687;48.900;9.188;2022-08-24T04:50:41;6.30;;;5.63;;
35578;SDS011;21687;48.900;9.188;2022-08-24T04:53:08;6.30;;;5.27;;
35578;SDS011;21687;48.900;9.188;2022-08-24T04:55:47;5.93;;;5.30;;
35578;SDS011;21687;48.900;9.188;2022-08-24T04:58:15;9.97;;;7.23;;
35578;SDS011;21687;48.900;9.188;2022-08-24T05:00:42;6.37;;;5.67;;
35578;SDS011;21687;48.900;9.188;2022-08-24T05:03:09;5.60;;;5.10;;
35578;SDS011;21687;48.900;9.188;2022-08-24T05:05:45;6.00;;;5.33;;
35578;SDS011;21687;48.900;9.188;2022-08-24T05:08:13;5.33;;;4.83;;
35578;SDS011;21687;48.900;9.188;2022-08-24T05:10:41;6.87;;;5.33;;
35578;SDS011;21687;48.900;9.188;2022-08-24T05:13:08;6.13;;;5.53;;
35578;SDS011;21687;48.900;9.188;2022-08-24T05:15:39;5.93;;;5.33;;
35578;SDS011;21687;48.900;9.188;2022-08-24T05:18:11;6.13;;;5.53;;
35578;SDS011;21687;48.900;9.188;2022-08-24T05:20:41;6.27;;;5.67;;
35578;SDS011;21687;48.900;9.188;2022-08-24T05:23:09;6.53;;;5.77;;
35578;SDS011;21687;48.900;9.188;2022-08-24T05:25:37;9.47;;;5.90;;
35578;SDS011;21687;48.900;9.188;2022-08-24T05:28:04;5.50;;;4.97;;
35578;SDS011;21687;48.900;9.188;2022-08-24T05:30:31;8.60;;;5.40;;
35578;SDS011;21687;48.900;9.188;2022-08-24T05:32:58;5.17;;;4.67;;
35578;SDS011;21687;48.900;9.188;2022-08-24T05:35:24;5.87;;;5.33;;
35578;SDS011;21687;48.900;9.188;2022-08-24T05:37:51;5.90;;;4.97;;
35578;SDS011;21687;48.900;9.188;2022-08-24T05:40:18;5.70;;;5.17;;
35578;SDS011;21687;48.900;9.188;2022-08-24T05:42:44;5.10;;;4.60;;
35578;SDS011;21687;48.900;9.188;2022-08-24T05:45:12;5.60;;;5.10;;
35578;SDS011;21687;48.900;9.188;2022-08-24T05:47:38;7.40;;;5.27;;
35578;SDS011;21687;48.900;9.188;2022-08-24T05:50:04;6.87;;;5.10;;
35578;SDS011;21687;48.900;9.188;2022-08-24T05:52:32;5.40;;;4.83;;
35578;SDS011;21687;48.900;9.188;2022-08-24T05:55:02;6.07;;;4.87;;
35578;SDS011;21687;48.900;9.188;2022-08-24T05:57:30;9.03;;;5.37;;
35578;SDS011;21687;48.900;9.188;2022-08-24T05:59:58;4.97;;;4.53;;
35578;SDS011;21687;48.900;9.188;2022-08-24T06:02:25;8.73;;;5.03;;
35578;SDS011;21687;48.900;9.188;2022-08-24T06:04:51;5.47;;;4.93;;
35578;SDS011;21687;48.900;9.188;2022-08-24T06:07:17;7.97;;;4.63;;
35578;SDS011;21687;48.900;9.188;2022-08-24T06:09:43;5.23;;;4.60;;
35578;SDS011;21687;48.900;9.188;2022-08-24T06:12:10;5.47;;;4.90;;
35578;SDS011;21687;48.900;9.188;2022-08-24T06:14:36;5.63;;;4.40;;
35578;SDS011;21687;48.900;9.188;2022-08-24T06:17:06;4.93;;;4.50;;
35578;SDS011;21687;48.900;9.188;2022-08-24T06:19:34;4.90;;;4.37;;
35578;SDS011;21687;48.900;9.188;2022-08-24T06:22:00;6.27;;;4.50;;
35578;SDS011;21687;48.900;9.188;2022-08-24T06:24:27;7.47;;;5.70;;
35578;SDS011;21687;48.900;9.188;2022-08-24T06:27:13;5.23;;;4.23;;
35578;SDS011;21687;48.900;9.188;2022-08-24T06:29:48;4.93;;;4.20;;
35578;SDS011;21687;48.900;9.188;2022-08-24T06:32:17;5.83;;;3.83;;
35578;SDS011;21687;48.900;9.188;2022-08-24T06:34:44;5.30;;;3.97;;
35578;SDS011;21687;48.900;9.188;2022-08-24T06:37:11;4.63;;;3.63;;
35578;SDS011;21687;48.900;9.188;2022-08-24T06:39:37;5.43;;;4.70;;
35578;SDS011;21687;48.900;9.188;2022-08-24T06:42:04;5.53;;;3.67;;
35578;SDS011;21687;48.900;9.188;2022-08-24T06:44:30;5.00;;;4.20;;
35578;SDS011;21687;48.900;9.188;2022-08-24T06:46:57;4.40;;;3.93;;
35578;SDS011;21687;48.900;9.188;2022-08-24T06:49:24;8.63;;;3.80;;
35578;SDS011;21687;48.900;9.188;2022-08-24T06:51:50;6.70;;;3.93;;
35578;SDS011;21687;48.900;9.188;2022-08-24T06:54:17;4.40;;;3.47;;
35578;SDS011;21687;48.900;9.188;2022-08-24T06:56:46;3.37;;;3.07;;
35578;SDS011;21687;48.900;9.188;2022-08-24T06:59:13;5.87;;;3.50;;
35578;SDS011;21687;48.900;9.188;2022-08-24T07:01:39;5.10;;;3.63;;
35578;SDS011;21687;48.900;9.188;2022-08-24T07:04:05;3.43;;;3.13;;
35578;SDS011;21687;48.900;9.188;2022-08-24T07:06:33;3.57;;;3.07;;
35578;SDS011;21687;48.900;9.188;2022-08-24T07:09:00;3.33;;;3.03;;
35578;SDS011;21687;48.900;9.188;2022-08-24T07:11:27;8.43;;;3.23;;
35578;SDS011;21687;48.900;9.188;2022-08-24T07:13:54;3.37;;;2.83;;
35578;SDS011;21687;48.900;9.188;2022-08-24T07:16:20;3.17;;;2.87;;
35578;SDS011;21687;48.900;9.188;2022-08-24T07:18:46;3.33;;;3.03;;
35578;SDS011;21687;48.900;9.188;2022-08-24T07:21:13;4.80;;;3.20;;
35578;SDS011;21687;48.900;9.188;2022-08-24T07:23:43;4.93;;;2.93;;
35578;SDS011;21687;48.900;9.188;2022-08-24T07:26:18;7.23;;;2.93;;
35578;SDS011;21687;48.900;9.188;2022-08-24T07:28:50;4.43;;;2.77;;
35578;SDS011;21687;48.900;9.188;2022-08-24T07:31:18;5.83;;;2.80;;
35578;SDS011;21687;48.900;9.188;2022-08-24T07:33:45;3.10;;;2.80;;
35578;SDS011;21687;48.900;9.188;2022-08-24T07:36:11;3.40;;;2.80;;
35578;SDS011;21687;48.900;9.188;2022-08-24T07:38:39;6.17;;;3.23;;
35578;SDS011;21687;48.900;9.188;2022-08-24T07:41:05;4.00;;;2.73;;
35578;SDS011;21687;48.900;9.188;2022-08-24T07:43:31;4.60;;;2.90;;
35578;SDS011;21687;48.900;9.188;2022-08-24T07:45:58;2.77;;;2.57;;
35578;SDS011;21687;48.900;9.188;2022-08-24T07:48:24;2.60;;;2.40;;
35578;SDS011;21687;48.900;9.188;2022-08-24T07:50:52;2.17;;;2.00;;
35578;SDS011;21687;48.900;9.188;2022-08-24T07:53:18;4.20;;;2.37;;
35578;SDS011;21687;48.900;9.188;2022-08-24T07:55:54;4.07;;;2.47;;
35578;SDS011;21687;48.900;9.188;2022-08-24T07:58:21;8.67;;;2.80;;
35578;SDS011;21687;48.900;9.188;2022-08-24T08:00:48;2.33;;;2.13;;
35578;SDS011;21687;48.900;9.188;2022-08-24T08:03:15;3.00;;;2.23;;
35578;SDS011;21687;48.900;9.188;2022-08-24T08:05:42;2.07;;;1.90;;
35578;SDS011;21687;48.900;9.188;2022-08-24T08:08:08;4.73;;;2.23;;
35578;SDS011;21687;48.900;9.188;2022-08-24T08:10:36;2.20;;;2.00;;
35578;SDS011;21687;48.900;9.188;2022-08-24T08:13:03;2.33;;;2.13;;
35578;SDS011;21687;48.900;9.188;2022-08-24T08:15:29;2.30;;;2.10;;
35578;SDS011;21687;48.900;9.188;2022-08-24T08:17:56;3.23;;;2.43;;
35578;SDS011;21687;48.900;9.188;2022-08-24T08:20:22;2.30;;;2.10;;
35578;SDS011;21687;48.900;9.188;2022-08-24T08:22:49;2.40;;;2.20;;
35578;SDS011;21687;48.900;9.188;2022-08-24T08:25:34;2.10;;;1.90;;
35578;SDS011;21687;48.900;9.188;2022-08-24T08:28:03;2.43;;;2.23;;
35578;SDS011;21687;48.900;9.188;2022-08-24T08:30:30;2.60;;;1.73;;
35578;SDS011;21687;48.900;9.188;2022-08-24T08:32:57;1.97;;;1.87;;
35578;SDS011;21687;48.900;9.188;2022-08-24T08:35:24;2.43;;;2.00;;
35578;SDS011;21687;48.900;9.188;2022-08-24T08:37:51;1.93;;;1.70;;
35578;SDS011;21687;48.900;9.188;2022-08-24T08:40:34;1.70;;;1.60;;
35578;SDS011;21687;48.900;9.188;2022-08-24T08:43:09;2.50;;;1.80;;
35578;SDS011;21687;48.900;9.188;2022-08-24T08:57:54;1.73;;;1.63;;
35578;SDS011;21687;48.900;9.188;2022-08-24T09:03:31;1.80;;;1.70;;
35578;SDS011;21687;48.900;9.188;2022-08-24T09:06:31;2.20;;;1.60;;
35578;SDS011;21687;48.900;9.188;2022-08-24T09:09:19;1.83;;;1.53;;
35578;SDS011;21687;48.900;9.188;2022-08-24T09:26:25;1.33;;;1.27;;
35578;SDS011;21687;48.900;9.188;2022-08-24T09:45:24;1.70;;;1.60;;
35578;SDS011;21687;48.900;9.188;2022-08-24T10:16:50;2.17;;;1.80;;
35578;SDS011;21687;48.900;9.188;2022-08-24T10:19:31;1.63;;;1.53;;
35578;SDS011;21687;48.900;9.188;2022-08-24T10:41:33;2.30;;;1.53;;
35578;SDS011;21687;48.900;9.188;2022-08-24T10:47:26;1.57;;;1.47;;
35578;SDS011;21687;48.900;9.188;2022-08-24T10:55:34;1.80;;;1.70;;
35578;SDS011;21687;48.900;9.188;2022-08-24T11:00:32;1.80;;;1.70;;
35578;SDS011;21687;48.900;9.188;2022-08-24T11:03:18;1.80;;;1.70;;
35578;SDS011;21687;48.900;9.188;2022-08-24T11:05:48;2.03;;;1.67;;
35578;SDS011;21687;48.900;9.188;2022-08-24T11:08:29;1.90;;;1.60;;
35578;SDS011;21687;48.900;9.188;2022-08-24T11:13:31;1.77;;;1.60;;
35578;SDS011;21687;48.900;9.188;2022-08-24T11:15:59;1.50;;;1.40;;
35578;SDS011;21687;48.900;9.188;2022-08-24T11:18:44;3.43;;;2.00;;
35578;SDS011;21687;48.900;9.188;2022-08-24T11:21:30;1.87;;;1.57;;
35578;SDS011;21687;48.900;9.188;2022-08-24T11:24:01;1.50;;;1.40;;
35578;SDS011;21687;48.900;9.188;2022-08-24T11:26:28;1.70;;;1.60;;
35578;SDS011;21687;48.900;9.188;2022-08-24T11:28:58;1.60;;;1.50;;
35578;SDS011;21687;48.900;9.188;2022-08-24T11:34:05;1.73;;;1.63;;
35578;SDS011;21687;48.900;9.188;2022-08-24T11:36:34;1.73;;;1.60;;
35578;SDS011;21687;48.900;9.188;2022-08-24T11:39:10;1.87;;;1.77;;
35578;SDS011;21687;48.900;9.188;2022-08-24T11:41:47;1.70;;;1.60;;
35578;SDS011;21687;48.900;9.188;2022-08-24T11:47:01;1.50;;;1.40;;
35578;SDS011;21687;48.900;9.188;2022-08-24T11:50:14;1.70;;;1.60;;
35578;SDS011;21687;48.900;9.188;2022-08-24T11:52:40;2.70;;;1.70;;
35578;SDS011;21687;48.900;9.188;2022-08-24T11:57:58;1.97;;;1.80;;
35578;SDS011;21687;48.900;9.188;2022-08-24T12:00:41;2.60;;;1.87;;
35578;SDS011;21687;48.900;9.188;2022-08-24T12:03:23;1.93;;;1.83;;
35578;SDS011;21687;48.900;9.188;2022-08-24T12:06:37;1.63;;;1.53;;
35578;SDS011;21687;48.900;9.188;2022-08-24T12:18:23;1.83;;;1.50;;
35578;SDS011;21687;48.900;9.188;2022-08-24T12:21:01;1.77;;;1.50;;
35578;SDS011;21687;48.900;9.188;2022-08-24T12:23:33;2.10;;;1.63;;
35578;SDS011;21687;48.900;9.188;2022-08-24T12:26:24;1.40;;;1.40;;
35578;SDS011;21687;48.900;9.188;2022-08-24T12:29:07;1.40;;;1.40;;
35578;SDS011;21687;48.900;9.188;2022-08-24T12:31:54;1.33;;;1.33;;
35578;SDS011;21687;48.900;9.188;2022-08-24T12:34:28;1.67;;;1.57;;
35578;SDS011;21687;48.900;9.188;2022-08-24T12:37:17;1.50;;;1.40;;
35578;SDS011;21687;48.900;9.188;2022-08-24T12:43:13;1.63;;;1.53;;
35578;SDS011;21687;48.900;9.188;2022-08-24T12:46:02;1.50;;;1.40;;
35578;SDS011;21687;48.900;9.188;2022-08-24T12:51:23;1.60;;;1.50;;
35578;SDS011;21687;48.900;9.188;2022-08-24T12:59:56;1.50;;;1.40;;
35578;SDS011;21687;48.900;9.188;2022-08-24T13:02:36;1.40;;;1.30;;
35578;SDS011;21687;48.900;9.188;2022-08-24T13:05:13;2.33;;;1.67;;
35578;SDS011;21687;48.900;9.188;2022-08-24T13:07:48;1.70;;;1.60;;
35578;SDS011;21687;48.900;9.188;2022-08-24T13:23:15;1.70;;;1.60;;
35578;SDS011;21687;48.900;9.188;2022-08-24T13:33:38;1.73;;;1.57;;
35578;SDS011;21687;48.900;9.188;2022-08-24T13:39:09;1.70;;;1.60;;
35578;SDS011;21687;48.900;9.188;2022-08-24T13:41:47;4.90;;;1.53;;
35578;SDS011;21687;48.900;9.188;2022-08-24T13:47:27;2.90;;;1.50;;
35578;SDS011;21687;48.900;9.188;2022-08-24T14:04:32;1.73;;;1.63;;
35578;SDS011;21687;48.900;9.188;2022-08-24T14:07:06;1.50;;;1.40;;
35578;SDS011;21687;48.900;9.188;2022-08-24T14:12:23;1.80;;;1.70;;
35578;SDS011;21687;48.900;9.188;2022-08-24T14:15:02;2.80;;;1.53;;
35578;SDS011;21687;48.900;9.188;2022-08-24T14:18:05;1.70;;;1.60;;
35578;SDS011;21687;48.900;9.188;2022-08-24T14:20:41;1.80;;;1.70;;
35578;SDS011;21687;48.900;9.188;2022-08-24T14:32:27;1.67;;;1.57;;
35578;SDS011;21687;48.900;9.188;2022-08-24T14:39:57;1.47;;;1.47;;
35578;SDS011;21687;48.900;9.188;2022-08-24T14:42:37;1.60;;;1.50;;
35578;SDS011;21687;48.900;9.188;2022-08-24T14:45:09;1.87;;;1.77;;
35578;SDS011;21687;48.900;9.188;2022-08-24T14:47:47;2.43;;;1.70;;
35578;SDS011;21687;48.900;9.188;2022-08-24T14:50:39;3.90;;;1.73;;
35578;SDS011;21687;48.900;9.188;2022-08-24T14:59:05;1.70;;;1.60;;
35578;SDS011;21687;48.900;9.188;2022-08-24T15:04:14;1.70;;;1.60;;
35578;SDS011;21687;48.900;9.188;2022-08-24T15:09:45;1.67;;;1.57;;
35578;SDS011;21687;48.900;9.188;2022-08-24T15:15:11;1.93;;;1.77;;
35578;SDS011;21687;48.900;9.188;2022-08-24T15:17:53;5.23;;;1.90;;
35578;SDS011;21687;48.900;9.188;2022-08-24T15:23:19;3.10;;;1.67;;
35578;SDS011;21687;48.900;9.188;2022-08-24T15:26:06;1.80;;;1.70;;
35578;SDS011;21687;48.900;9.188;2022-08-24T15:28:37;1.80;;;1.70;;
35578;SDS011;21687;48.900;9.188;2022-08-24T15:31:17;1.97;;;1.80;;
35578;SDS011;21687;48.900;9.188;2022-08-24T15:33:56;1.90;;;1.80;;
35578;SDS011;21687;48.900;9.188;2022-08-24T15:36:25;3.13;;;1.80;;
35578;SDS011;21687;48.900;9.188;2022-08-24T15:38:53;1.70;;;1.60;;
35578;SDS011;21687;48.900;9.188;2022-08-24T15:41:21;1.70;;;1.60;;
35578;SDS011;21687;48.900;9.188;2022-08-24T15:44:01;2.40;;;1.60;;
35578;SDS011;21687;48.900;9.188;2022-08-24T15:46:44;1.90;;;1.80;;
35578;SDS011;21687;48.900;9.188;2022-08-24T15:51:50;1.70;;;1.60;;
35578;SDS011;21687;48.900;9.188;2022-08-24T15:54:44;1.77;;;1.67;;
35578;SDS011;21687;48.900;9.188;2022-08-24T15:59:50;1.70;;;1.60;;
35578;SDS011;21687;48.900;9.188;2022-08-24T16:02:25;1.70;;;1.60;;
35578;SDS011;21687;48.900;9.188;2022-08-24T16:10:28;1.67;;;1.60;;
35578;SDS011;21687;48.900;9.188;2022-08-24T16:18:15;1.60;;;1.50;;
35578;SDS011;21687;48.900;9.188;2022-08-24T16:20:44;2.20;;;2.00;;
35578;SDS011;21687;48.900;9.188;2022-08-24T16:23:13;1.60;;;1.50;;
35578;SDS011;21687;48.900;9.188;2022-08-24T16:25:52;1.93;;;1.83;;
35578;SDS011;21687;48.900;9.188;2022-08-24T16:28:43;1.90;;;1.80;;
35578;SDS011;21687;48.900;9.188;2022-08-24T16:31:09;1.67;;;1.57;;
35578;SDS011;21687;48.900;9.188;2022-08-24T16:33:45;2.00;;;1.90;;
35578;SDS011;21687;48.900;9.188;2022-08-24T16:36:14;1.57;;;1.47;;
35578;SDS011;21687;48.900;9.188;2022-08-24T16:38:46;3.23;;;1.60;;
35578;SDS011;21687;48.900;9.188;2022-08-24T16:41:15;1.43;;;1.40;;
35578;SDS011;21687;48.900;9.188;2022-08-24T16:43:43;2.00;;;1.60;;
35578;SDS011;21687;48.900;9.188;2022-08-24T16:46:11;1.57;;;1.47;;
35578;SDS011;21687;48.900;9.188;2022-08-24T16:48:42;1.60;;;1.50;;
35578;SDS011;21687;48.900;9.188;2022-08-24T16:51:08;5.57;;;1.90;;
35578;SDS011;21687;48.900;9.188;2022-08-24T16:53:34;1.53;;;1.43;;
35578;SDS011;21687;48.900;9.188;2022-08-24T16:56:01;1.67;;;1.57;;
35578;SDS011;21687;48.900;9.188;2022-08-24T16:58:29;1.80;;;1.70;;
35578;SDS011;21687;48.900;9.188;2022-08-24T17:00:57;1.53;;;1.43;;
35578;SDS011;21687;48.900;9.188;2022-08-24T17:03:23;4.40;;;1.70;;
35578;SDS011;21687;48.900;9.188;2022-08-24T17:05:50;1.60;;;1.50;;
35578;SDS011;21687;48.900;9.188;2022-08-24T17:08:16;1.60;;;1.50;;
35578;SDS011;21687;48.900;9.188;2022-08-24T17:10:43;2.43;;;1.60;;
35578;SDS011;21687;48.900;9.188;2022-08-24T17:13:10;1.60;;;1.50;;
35578;SDS011;21687;48.900;9.188;2022-08-24T17:15:36;1.90;;;1.70;;
35578;SDS011;21687;48.900;9.188;2022-08-24T17:18:03;1.73;;;1.63;;
35578;SDS011;21687;48.900;9.188;2022-08-24T17:20:32;1.83;;;1.40;;
35578;SDS011;21687;48.900;9.188;2022-08-24T17:22:59;1.50;;;1.40;;
35578;SDS011;21687;48.900;9.188;2022-08-24T17:25:26;1.20;;;1.20;;
35578;SDS011;21687;48.900;9.188;2022-08-24T17:27:54;1.60;;;1.50;;
35578;SDS011;21687;48.900;9.188;2022-08-24T17:30:21;1.53;;;1.43;;
35578;SDS011;21687;48.900;9.188;2022-08-24T17:32:48;1.63;;;1.53;;
35578;SDS011;21687;48.900;9.188;2022-08-24T17:35:16;1.97;;;1.47;;
35578;SDS011;21687;48.900;9.188;2022-08-24T17:37:44;2.93;;;1.70;;
35578;SDS011;21687;48.900;9.188;2022-08-24T17:40:12;1.70;;;1.53;;
35578;SDS011;21687;48.900;9.188;2022-08-24T17:42:40;1.70;;;1.60;;
35578;SDS011;21687;48.900;9.188;2022-08-24T17:45:07;1.80;;;1.70;;
35578;SDS011;21687;48.900;9.188;2022-08-24T17:47:33;1.73;;;1.63;;
35578;SDS011;21687;48.900;9.188;2022-08-24T17:50:00;1.60;;;1.50;;
35578;SDS011;21687;48.900;9.188;2022-08-24T17:52:28;1.67;;;1.57;;
35578;SDS011;21687;48.900;9.188;2022-08-24T17:54:54;1.60;;;1.50;;
35578;SDS011;21687;48.900;9.188;2022-08-24T17:57:22;1.53;;;1.43;;
35578;SDS011;21687;48.900;9.188;2022-08-24T17:59:51;1.70;;;1.40;;
35578;SDS011;21687;48.900;9.188;2022-08-24T18:02:18;1.73;;;1.63;;
35578;SDS011;21687;48.900;9.188;2022-08-24T18:04:44;1.50;;;1.40;;
35578;SDS011;21687;48.900;9.188;2022-08-24T18:07:14;1.87;;;1.77;;
35578;SDS011;21687;48.900;9.188;2022-08-24T18:09:47;1.80;;;1.70;;
35578;SDS011;21687;48.900;9.188;2022-08-24T18:12:16;1.87;;;1.60;;
35578;SDS011;21687;48.900;9.188;2022-08-24T18:14:45;1.60;;;1.40;;
35578;SDS011;21687;48.900;9.188;2022-08-24T18:17:12;4.97;;;1.70;;
35578;SDS011;21687;48.900;9.188;2022-08-24T18:19:43;2.73;;;1.50;;
35578;SDS011;21687;48.900;9.188;2022-08-24T18:22:10;1.80;;;1.70;;
35578;SDS011;21687;48.900;9.188;2022-08-24T18:24:37;2.07;;;1.70;;
35578;SDS011;21687;48.900;9.188;2022-08-24T18:29:33;3.90;;;2.27;;
35578;SDS011;21687;48.900;9.188;2022-08-24T18:32:00;1.83;;;1.73;;
35578;SDS011;21687;48.900;9.188;2022-08-24T18:34:27;1.97;;;1.67;;
35578;SDS011;21687;48.900;9.188;2022-08-24T18:36:55;2.37;;;1.97;;
35578;SDS011;21687;48.900;9.188;2022-08-24T18:39:21;1.70;;;1.60;;
35578;SDS011;21687;48.900;9.188;2022-08-24T18:41:47;1.87;;;1.77;;
35578;SDS011;21687;48.900;9.188;2022-08-24T18:44:19;1.83;;;1.70;;
35578;SDS011;21687;48.900;9.188;2022-08-24T18:46:47;2.00;;;1.90;;
35578;SDS011;21687;48.900;9.188;2022-08-24T18:49:14;2.13;;;1.93;;
35578;SDS011;21687;48.900;9.188;2022-08-24T18:51:42;1.90;;;1.80;;
35578;SDS011;21687;48.900;9.188;2022-08-24T18:54:31;2.20;;;2.00;;
35578;SDS011;21687;48.900;9.188;2022-08-24T18:57:00;2.00;;;1.90;;
35578;SDS011;21687;48.900;9.188;2022-08-24T18:59:28;2.30;;;2.10;;